createdAt,value
2016-12-05T00:00:20.869Z,0.64
2016-12-05T00:01:21.030Z,0.49
2016-12-05T00:02:21.063Z,0.64
2016-12-05T00:03:21.041Z,0.64
2016-12-05T00:04:21.336Z,0.68
2016-12-05T00:05:20.867Z,0.57
2016-12-05T00:06:20.968Z,0.49
2016-12-05T00:07:21.031Z,0.53
2016-12-05T00:08:21.029Z,0.51
2016-12-05T00:09:21.216Z,0.56
2016-12-05T00:10:20.987Z,0.44
2016-12-05T00:11:20.981Z,0.48
2016-12-05T00:12:20.947Z,0.53
2016-12-05T00:13:21.023Z,0.57
2016-12-05T00:14:20.975Z,0.57
2016-12-05T00:15:21.051Z,0.62
2016-12-05T00:16:21.013Z,0.57
2016-12-05T00:17:21.129Z,0.68
2016-12-05T00:18:21.139Z,0.71
2016-12-05T00:19:21.221Z,0.62
2016-12-05T00:20:21.015Z,0.63
2016-12-05T00:21:21.091Z,0.6
2016-12-05T00:22:20.952Z,0.63
2016-12-05T00:23:21.034Z,0.71
2016-12-05T00:24:21.045Z,0.62
2016-12-05T00:25:21.063Z,0.7
2016-12-05T00:26:21.044Z,0.57
2016-12-05T00:27:21.094Z,0.56
2016-12-05T00:28:21.083Z,0.52
2016-12-05T00:29:21.000Z,0.52
2016-12-05T00:30:20.978Z,0.49
2016-12-05T00:31:21.208Z,0.53
2016-12-05T00:32:21.042Z,0.49
2016-12-05T00:33:21.074Z,0.48
2016-12-05T00:34:21.003Z,0.45
2016-12-05T00:35:21.017Z,0.52
2016-12-05T00:36:21.051Z,0.48
2016-12-05T00:37:21.300Z,0.45
2016-12-05T00:38:20.992Z,0.51
2016-12-05T00:39:21.073Z,0.37
2016-12-05T00:40:21.303Z,0.48
2016-12-05T00:41:21.188Z,0.3
2016-12-05T00:42:21.131Z,0.34
2016-12-05T00:43:21.793Z,0.4
2016-12-05T00:44:21.089Z,0.43
2016-12-05T00:45:21.033Z,0.43
2016-12-05T00:46:21.124Z,0.44
2016-12-05T00:47:21.295Z,0.49
2016-12-05T00:48:21.196Z,0.49
2016-12-05T00:49:21.141Z,0.49
2016-12-05T00:50:21.323Z,0.49
2016-12-05T00:51:21.101Z,0.51
2016-12-05T00:52:21.337Z,0.43
2016-12-05T00:53:21.005Z,0.31
2016-12-05T00:54:21.044Z,0.41
2016-12-05T00:55:21.190Z,0.4
2016-12-05T00:56:21.115Z,0.35
2016-12-05T00:57:20.994Z,0.31
2016-12-05T00:58:21.125Z,0.31
2016-12-05T00:59:21.042Z,0.35
2016-12-05T01:00:21.041Z,0.33
2016-12-05T01:01:21.095Z,0.37
2016-12-05T01:02:21.209Z,0.49
2016-12-05T01:03:21.003Z,0.45
2016-12-05T01:04:21.129Z,0.41
2016-12-05T01:05:20.970Z,0.4
2016-12-05T01:06:21.149Z,0.49
2016-12-05T01:07:21.184Z,0.38
2016-12-05T01:08:20.950Z,0.34
2016-12-05T01:09:21.071Z,0.49
2016-12-05T01:10:21.316Z,0.41
2016-12-05T01:11:21.197Z,0.37
2016-12-05T01:12:21.008Z,0.43
2016-12-05T01:13:21.252Z,0.51
2016-12-05T01:14:21.503Z,0.43
2016-12-05T01:15:21.058Z,0.37
2016-12-05T01:16:20.993Z,0.37
2016-12-05T01:17:21.198Z,0.41
2016-12-05T01:18:21.239Z,0.43
2016-12-05T01:19:21.167Z,0.3
2016-12-05T01:20:21.122Z,0.41
2016-12-05T01:21:21.366Z,0.43
2016-12-05T01:22:21.010Z,0.4
2016-12-05T01:23:21.126Z,0.34
2016-12-05T01:24:21.005Z,0.48
2016-12-05T01:25:21.614Z,0.43
2016-12-05T01:26:21.077Z,0.49
2016-12-05T01:27:21.069Z,0.35
2016-12-05T01:28:21.118Z,0.4
2016-12-05T01:29:20.984Z,0.43
2016-12-05T01:30:21.092Z,0.35
2016-12-05T01:31:21.081Z,0.44
2016-12-05T01:32:21.019Z,0.44
2016-12-05T01:33:21.009Z,0.51
2016-12-05T01:34:21.089Z,0.53
2016-12-05T01:35:21.016Z,0.57
2016-12-05T01:36:21.592Z,0.4
2016-12-05T01:37:21.022Z,0.4
2016-12-05T01:38:21.020Z,0.41
2016-12-05T01:39:21.134Z,0.38
2016-12-05T01:40:21.090Z,0.34
2016-12-05T01:41:21.115Z,0.34
2016-12-05T01:42:21.035Z,0.37
2016-12-05T01:43:21.047Z,0.34
2016-12-05T01:44:21.105Z,0.49
2016-12-05T01:45:21.068Z,0.52
2016-12-05T01:46:20.961Z,0.51
2016-12-05T01:47:21.000Z,0.53
2016-12-05T01:48:20.972Z,0.49
2016-12-05T01:49:21.013Z,0.49
2016-12-05T01:50:21.124Z,0.45
2016-12-05T01:51:21.089Z,0.44
2016-12-05T01:52:21.059Z,0.57
2016-12-05T01:53:21.082Z,0.49
2016-12-05T01:54:21.021Z,0.49
2016-12-05T01:55:21.031Z,0.67
2016-12-05T01:56:21.029Z,0.62
2016-12-05T01:57:21.077Z,0.72
2016-12-05T01:58:21.131Z,0.71
2016-12-05T01:59:20.982Z,0.71
2016-12-05T02:00:21.063Z,0.62
2016-12-05T02:01:21.135Z,0.68
2016-12-05T02:02:21.146Z,0.57
2016-12-05T02:03:20.974Z,0.7
2016-12-05T02:04:21.080Z,0.53
2016-12-05T02:05:21.112Z,0.45
2016-12-05T02:06:21.051Z,0.6
2016-12-05T02:07:21.002Z,0.67
2016-12-05T02:08:21.070Z,0.6
2016-12-05T02:09:21.063Z,0.67
2016-12-05T02:10:20.987Z,0.62
2016-12-05T02:11:21.023Z,0.64
2016-12-05T02:12:21.083Z,0.67
2016-12-05T02:13:21.055Z,0.68
2016-12-05T02:14:21.071Z,0.67
2016-12-05T02:15:21.163Z,0.57
2016-12-05T02:16:21.024Z,0.57
2016-12-05T02:17:21.183Z,0.59
2016-12-05T02:18:21.012Z,0.64
2016-12-05T02:19:21.062Z,0.59
2016-12-05T02:20:20.969Z,0.63
2016-12-05T02:21:21.085Z,0.56
2016-12-05T02:22:21.078Z,0.63
2016-12-05T02:23:21.100Z,0.64
2016-12-05T02:24:21.046Z,0.62
2016-12-05T02:25:21.103Z,0.6
2016-12-05T02:26:21.040Z,0.68
2016-12-05T02:27:21.003Z,0.8
2016-12-05T02:28:21.210Z,0.7
2016-12-05T02:29:21.062Z,0.81
2016-12-05T02:30:21.092Z,0.81
2016-12-05T02:31:21.009Z,0.71
2016-12-05T02:32:21.072Z,0.75
2016-12-05T02:33:21.047Z,0.68
2016-12-05T02:34:21.066Z,0.72
2016-12-05T02:35:21.086Z,0.64
2016-12-05T02:36:21.054Z,0.75
2016-12-05T02:37:21.160Z,0.7
2016-12-05T02:38:21.135Z,0.64
2016-12-05T02:39:21.202Z,0.57
2016-12-05T02:40:21.170Z,0.53
2016-12-05T02:41:21.085Z,0.6
2016-12-05T02:42:21.114Z,0.62
2016-12-05T02:43:21.143Z,0.62
2016-12-05T02:44:21.174Z,0.71
2016-12-05T02:45:21.142Z,0.7
2016-12-05T02:46:21.013Z,0.6
2016-12-05T02:47:21.044Z,0.62
2016-12-05T02:48:21.135Z,0.51
2016-12-05T02:49:21.136Z,0.49
2016-12-05T02:50:21.094Z,0.49
2016-12-05T02:51:21.001Z,0.71
2016-12-05T02:52:21.048Z,0.67
2016-12-05T02:53:21.043Z,0.57
2016-12-05T02:54:21.146Z,0.64
2016-12-05T02:55:21.057Z,0.64
2016-12-05T02:56:21.153Z,0.51
2016-12-05T02:57:21.126Z,0.57
2016-12-05T02:58:21.079Z,0.67
2016-12-05T02:59:21.083Z,0.49
2016-12-05T03:00:21.055Z,0.48
2016-12-05T03:01:21.057Z,0.53
2016-12-05T03:02:21.228Z,0.64
2016-12-05T03:03:21.113Z,0.62
2016-12-05T03:04:21.054Z,0.59
2016-12-05T03:05:21.210Z,0.48
2016-12-05T03:06:21.153Z,0.56
2016-12-05T03:07:21.128Z,0.44
2016-12-05T03:08:21.749Z,0.51
2016-12-05T03:09:21.056Z,0.51
2016-12-05T03:10:21.199Z,0.51
2016-12-05T03:11:21.038Z,0.62
2016-12-05T03:12:21.036Z,0.49
2016-12-05T03:13:21.056Z,0.51
2016-12-05T03:14:21.128Z,0.62
2016-12-05T03:15:21.076Z,0.53
2016-12-05T03:16:21.095Z,0.43
2016-12-05T03:17:21.064Z,0.51
2016-12-05T03:18:21.199Z,0.41
2016-12-05T03:19:21.255Z,0.52
2016-12-05T03:20:21.215Z,0.6
2016-12-05T03:21:21.219Z,0.57
2016-12-05T03:22:21.084Z,0.6
2016-12-05T03:23:21.083Z,0.56
2016-12-05T03:24:21.230Z,0.52
2016-12-05T03:25:21.186Z,0.56
2016-12-05T03:26:21.129Z,0.59
2016-12-05T03:27:21.054Z,0.52
2016-12-05T03:28:21.093Z,0.57
2016-12-05T03:29:21.184Z,0.48
2016-12-05T03:30:21.087Z,0.44
2016-12-05T03:31:21.135Z,0.49
2016-12-05T03:32:21.134Z,0.53
2016-12-05T03:33:21.133Z,0.59
2016-12-05T03:34:21.145Z,0.56
2016-12-05T03:35:21.035Z,0.57
2016-12-05T03:36:21.297Z,0.48
2016-12-05T03:37:21.053Z,0.57
2016-12-05T03:38:21.211Z,0.56
2016-12-05T03:39:21.145Z,0.48
2016-12-05T03:40:21.116Z,0.44
2016-12-05T03:41:21.049Z,0.44
2016-12-05T03:42:21.202Z,0.49
2016-12-05T03:43:21.101Z,0.51
2016-12-05T03:44:21.083Z,0.48
2016-12-05T03:45:21.126Z,0.45
2016-12-05T03:46:21.189Z,0.51
2016-12-05T03:47:21.078Z,0.49
2016-12-05T03:48:21.257Z,0.44
2016-12-05T03:49:21.105Z,0.68
2016-12-05T03:50:21.249Z,0.62
2016-12-05T03:51:21.136Z,0.51
2016-12-05T03:52:21.155Z,0.53
2016-12-05T03:53:21.077Z,0.48
2016-12-05T03:54:21.096Z,0.52
2016-12-05T03:55:21.139Z,0.53
2016-12-05T03:56:21.146Z,0.51
2016-12-05T03:57:21.196Z,0.6
2016-12-05T03:58:21.194Z,0.52
2016-12-05T03:59:21.146Z,0.6
2016-12-05T04:00:21.148Z,0.7
2016-12-05T04:01:21.165Z,0.52
2016-12-05T04:02:21.225Z,0.6
2016-12-05T04:03:21.085Z,0.51
2016-12-05T04:04:21.125Z,0.52
2016-12-05T04:05:21.184Z,0.49
2016-12-05T04:06:21.106Z,0.51
2016-12-05T04:07:21.084Z,0.48
2016-12-05T04:08:21.156Z,0.49
2016-12-05T04:09:21.125Z,0.49
2016-12-05T04:10:21.786Z,0.49
2016-12-05T04:11:21.086Z,0.45
2016-12-05T04:12:21.214Z,0.44
2016-12-05T04:13:21.106Z,0.38
2016-12-05T04:14:21.259Z,0.51
2016-12-05T04:15:21.116Z,0.45
2016-12-05T04:16:21.285Z,0.48
2016-12-05T04:17:21.125Z,0.45
2016-12-05T04:18:21.273Z,0.49
2016-12-05T04:19:21.333Z,0.53
2016-12-05T04:20:21.172Z,0.44
2016-12-05T04:21:21.104Z,0.44
2016-12-05T04:22:21.161Z,0.43
2016-12-05T04:23:21.265Z,0.43
2016-12-05T04:24:21.224Z,0.31
2016-12-05T04:25:21.123Z,0.44
2016-12-05T04:26:21.247Z,0.44
2016-12-05T04:27:21.114Z,0.43
2016-12-05T04:28:21.208Z,0.3
2016-12-05T04:29:21.206Z,0.38
2016-12-05T04:30:21.130Z,0.35
2016-12-05T04:31:21.077Z,0.38
2016-12-05T04:32:21.183Z,0.35
2016-12-05T04:33:21.108Z,0.28
2016-12-05T04:34:21.324Z,0.35
2016-12-05T04:35:21.142Z,0.25
2016-12-05T04:36:21.285Z,0.35
2016-12-05T04:37:21.108Z,0.34
2016-12-05T04:38:21.164Z,0.2
2016-12-05T04:39:21.157Z,0.23
2016-12-05T04:40:21.252Z,0.25
2016-12-05T04:41:21.665Z,0.23
2016-12-05T04:42:21.929Z,0.2
2016-12-05T04:43:21.166Z,0.17
2016-12-05T04:44:21.207Z,0.15
2016-12-05T04:45:21.136Z,0.08
2016-12-05T04:46:21.244Z,0.22
2016-12-05T04:47:21.125Z,0.17
2016-12-05T04:48:21.242Z,0.16
2016-12-05T04:49:21.207Z,0.16
2016-12-05T04:50:21.319Z,0.26
2016-12-05T04:51:21.185Z,0.13
2016-12-05T04:52:21.184Z,0.26
2016-12-05T04:53:21.192Z,0.23
2016-12-05T04:54:21.288Z,0.17
2016-12-05T04:55:21.185Z,0.13
2016-12-05T04:56:21.244Z,0.17
2016-12-05T04:57:21.173Z,0.23
2016-12-05T04:58:21.172Z,0.26
2016-12-05T04:59:21.218Z,0.28
2016-12-05T05:00:21.325Z,0.3
2016-12-05T05:01:21.234Z,0.22
2016-12-05T05:02:21.383Z,0.23
2016-12-05T05:03:21.141Z,0.2
2016-12-05T05:04:21.251Z,0.26
2016-12-05T05:05:21.197Z,0.25
2016-12-05T05:06:21.264Z,0.38
2016-12-05T05:07:22.475Z,0.2
2016-12-05T05:08:21.218Z,0.25
2016-12-05T05:09:21.248Z,0.28
2016-12-05T05:10:21.378Z,0.45
2016-12-05T05:11:21.164Z,0.31
2016-12-05T05:12:21.310Z,0.34
2016-12-05T05:13:21.189Z,0.41
2016-12-05T05:14:21.345Z,0.26
2016-12-05T05:15:21.209Z,0.25
2016-12-05T05:16:21.312Z,0.35
2016-12-05T05:17:21.214Z,0.33
2016-12-05T05:18:21.255Z,0.4
2016-12-05T05:19:21.198Z,0.41
2016-12-05T05:20:21.345Z,0.25
2016-12-05T05:21:21.222Z,0.23
2016-12-05T05:22:21.348Z,0.25
2016-12-05T05:23:21.212Z,0.3
2016-12-05T05:24:21.379Z,0.28
2016-12-05T05:25:21.235Z,0.23
2016-12-05T05:26:21.232Z,0.34
2016-12-05T05:27:21.254Z,0.41
2016-12-05T05:28:21.444Z,0.3
2016-12-05T05:29:21.404Z,0.26
2016-12-05T05:30:21.447Z,0.44
2016-12-05T05:31:21.230Z,0.31
2016-12-05T05:32:21.301Z,0.44
2016-12-05T05:33:21.177Z,0.38
2016-12-05T05:34:21.234Z,0.33
2016-12-05T05:35:21.245Z,0.33
2016-12-05T05:36:22.656Z,0.3
2016-12-05T05:37:21.205Z,0.35
2016-12-05T05:38:21.379Z,0.3
2016-12-05T05:39:21.245Z,0.37
2016-12-05T05:40:21.205Z,0.31
2016-12-05T05:41:21.265Z,0.41
2016-12-05T05:42:21.285Z,0.4
2016-12-05T05:43:21.205Z,0.37
2016-12-05T05:44:21.521Z,0.41
2016-12-05T05:45:21.233Z,0.4
2016-12-05T05:46:21.298Z,0.38
2016-12-05T05:47:21.184Z,0.35
2016-12-05T05:48:21.259Z,0.44
2016-12-05T05:49:21.248Z,0.49
2016-12-05T05:50:21.243Z,0.43
2016-12-05T05:51:21.226Z,0.45
2016-12-05T05:52:21.261Z,0.45
2016-12-05T05:53:21.350Z,0.48
2016-12-05T05:54:21.330Z,0.35
2016-12-05T05:55:21.357Z,0.43
2016-12-05T05:56:21.236Z,0.45
2016-12-05T05:57:21.344Z,0.45
2016-12-05T05:58:21.467Z,0.44
2016-12-05T05:59:21.374Z,0.52
2016-12-05T06:00:21.301Z,0.45
2016-12-05T06:01:21.227Z,0.62
2016-12-05T06:02:21.297Z,0.48
2016-12-05T06:03:21.243Z,0.45
2016-12-05T06:04:21.392Z,0.56
2016-12-05T06:05:21.245Z,0.48
2016-12-05T06:06:21.233Z,0.45
2016-12-05T06:07:21.255Z,0.49
2016-12-05T06:08:21.445Z,0.48
2016-12-05T06:09:21.334Z,0.44
2016-12-05T06:10:21.394Z,0.44
2016-12-05T06:11:21.313Z,0.41
2016-12-05T06:12:21.416Z,0.31
2016-12-05T06:13:21.258Z,0.28
2016-12-05T06:14:21.356Z,0.37
2016-12-05T06:15:21.297Z,0.31
2016-12-05T06:16:21.465Z,0.4
2016-12-05T06:17:21.328Z,0.31
2016-12-05T06:18:21.529Z,0.28
2016-12-05T06:19:21.400Z,0.26
2016-12-05T06:20:21.355Z,0.25
2016-12-05T06:21:21.334Z,0.3
2016-12-05T06:22:21.330Z,0.33
2016-12-05T06:23:21.358Z,0.35
2016-12-05T06:24:21.426Z,0.38
2016-12-05T06:25:21.295Z,0.37
2016-12-05T06:26:21.403Z,0.26
2016-12-05T06:27:21.336Z,0.31
2016-12-05T06:28:21.346Z,0.25
2016-12-05T06:29:21.325Z,0.33
2016-12-05T06:30:21.316Z,0.31
2016-12-05T06:31:23.235Z,0.19
2016-12-05T06:32:24.092Z,0.2
2016-12-05T06:33:23.435Z,0.25
2016-12-05T06:34:23.522Z,0.23
2016-12-05T06:35:23.266Z,0.25
2016-12-05T06:36:25.146Z,0.28
2016-12-05T06:37:23.861Z,0.2
2016-12-05T06:38:21.433Z,0.22
2016-12-05T06:39:22.561Z,0.2
2016-12-05T06:40:24.496Z,0.4
2016-12-05T06:41:22.095Z,0.34
2016-12-05T06:42:22.715Z,0.25
2016-12-05T06:43:24.401Z,0.25
2016-12-05T06:44:22.841Z,0.35
2016-12-05T06:45:23.936Z,0.25
2016-12-05T06:46:21.365Z,0.2
2016-12-05T06:47:21.269Z,0.25
2016-12-05T06:48:21.455Z,0.2
2016-12-05T06:49:21.331Z,0.3
2016-12-05T06:50:21.378Z,0.3
2016-12-05T06:51:21.299Z,0.33
2016-12-05T06:52:21.304Z,0.33
2016-12-05T06:53:21.426Z,0.3
2016-12-05T06:54:21.450Z,0.25
2016-12-05T06:55:21.360Z,0.25
2016-12-05T06:56:21.311Z,0.28
2016-12-05T06:57:21.323Z,0.22
2016-12-05T06:58:21.443Z,0.19
2016-12-05T06:59:21.469Z,0.26
2016-12-05T07:00:21.419Z,0.25
2016-12-05T07:01:21.355Z,0.16
2016-12-05T07:02:21.395Z,0.26
2016-12-05T07:03:21.420Z,0.26
2016-12-05T07:04:21.464Z,0.17
2016-12-05T07:05:21.337Z,0.3
2016-12-05T07:06:21.607Z,0.15
2016-12-05T07:07:21.582Z,0.16
2016-12-05T07:08:21.407Z,0.3
2016-12-05T07:09:21.414Z,0.16
2016-12-05T07:10:21.414Z,0.26
2016-12-05T07:11:21.409Z,0.15
2016-12-05T07:12:21.398Z,0.1
2016-12-05T07:13:21.366Z,0.15
2016-12-05T07:14:21.545Z,0.12
2016-12-05T07:15:21.461Z,0.12
2016-12-05T07:16:21.527Z,0.2
2016-12-05T07:17:21.476Z,0.19
2016-12-05T07:18:21.504Z,0.19
2016-12-05T07:19:21.502Z,0.16
2016-12-05T07:20:21.495Z,0.2
2016-12-05T07:21:21.521Z,0.23
2016-12-05T07:22:21.474Z,0.33
2016-12-05T07:23:21.456Z,0.25
2016-12-05T07:24:21.653Z,0.19
2016-12-05T07:25:21.504Z,0.26
2016-12-05T07:26:21.565Z,0.25
2016-12-05T07:27:21.555Z,0.3
2016-12-05T07:28:21.601Z,0.26
2016-12-05T07:29:21.481Z,0.2
2016-12-05T07:30:21.475Z,0.31
2016-12-05T07:31:21.456Z,0.3
2016-12-05T07:32:21.583Z,0.2
2016-12-05T07:33:21.396Z,0.26
2016-12-05T07:34:21.504Z,0.2
2016-12-05T07:35:21.435Z,0.23
2016-12-05T07:36:22.956Z,0.25
2016-12-05T07:37:21.416Z,0.23
2016-12-05T07:38:21.374Z,0.26
2016-12-05T07:39:21.466Z,0.28
2016-12-05T07:40:21.532Z,0.23
2016-12-05T07:41:21.366Z,0.25
2016-12-05T07:42:23.149Z,0.25
2016-12-05T07:43:21.420Z,0.26
2016-12-05T07:44:21.418Z,0.25
2016-12-05T07:45:21.475Z,0.26
2016-12-05T07:46:21.465Z,0.23
2016-12-05T07:47:21.394Z,0.2
2016-12-05T07:48:22.704Z,0.3
2016-12-05T07:49:21.443Z,0.28
2016-12-05T07:50:21.581Z,0.3
2016-12-05T07:51:21.530Z,0.31
2016-12-05T07:52:21.471Z,0.25
2016-12-05T07:53:21.472Z,0.31
2016-12-05T07:54:21.549Z,0.23
2016-12-05T07:55:21.504Z,0.26
2016-12-05T07:56:21.486Z,0.3
2016-12-05T07:57:21.450Z,0.23
2016-12-05T07:58:21.447Z,0.28
2016-12-05T07:59:21.483Z,0.35
2016-12-05T08:00:21.528Z,0.33
2016-12-05T08:01:21.419Z,0.43
2016-12-05T08:02:21.457Z,0.38
2016-12-05T08:03:21.449Z,0.4
2016-12-05T08:04:21.766Z,0.35
2016-12-05T08:05:21.441Z,0.45
2016-12-05T08:06:21.656Z,0.34
2016-12-05T08:07:21.523Z,0.43
2016-12-05T08:08:21.459Z,0.51
2016-12-05T08:09:21.631Z,0.56
2016-12-05T08:10:21.513Z,0.53
2016-12-05T08:11:21.548Z,0.51
2016-12-05T08:12:21.663Z,0.59
2016-12-05T08:13:21.587Z,0.59
2016-12-05T08:14:21.473Z,0.67
2016-12-05T08:15:21.546Z,0.74
2016-12-05T08:16:21.610Z,0.78
2016-12-05T08:17:21.529Z,0.68
2016-12-05T08:18:21.461Z,0.67
2016-12-05T08:19:21.597Z,0.71
2016-12-05T08:20:21.578Z,0.71
2016-12-05T08:21:21.608Z,0.89
2016-12-05T08:22:22.092Z,0.81
2016-12-05T08:23:21.552Z,0.92
2016-12-05T08:24:21.622Z,0.92
2016-12-05T08:25:21.550Z,0.92
2016-12-05T08:26:21.543Z,0.95
2016-12-05T08:27:21.671Z,1.08
2016-12-05T08:28:23.355Z,1.13
2016-12-05T08:29:21.566Z,1.24
2016-12-05T08:30:21.540Z,1.28
2016-12-05T08:31:21.583Z,1.32
2016-12-05T08:32:21.628Z,1.35
2016-12-05T08:33:21.475Z,1.43
2016-12-05T08:34:22.253Z,1.39
2016-12-05T08:35:21.508Z,1.43
2016-12-05T08:36:21.623Z,1.52
2016-12-05T08:37:21.523Z,1.49
2016-12-05T08:38:21.559Z,1.42
2016-12-05T08:39:21.764Z,1.61
2016-12-05T08:40:21.543Z,1.6
2016-12-05T08:41:21.619Z,1.68
2016-12-05T08:42:21.598Z,1.57
2016-12-05T08:43:21.517Z,1.68
2016-12-05T08:44:21.501Z,1.65
2016-12-05T08:45:21.610Z,1.79
2016-12-05T08:46:21.576Z,1.82
2016-12-05T08:47:21.506Z,1.82
2016-12-05T08:48:21.595Z,1.88
2016-12-05T08:49:21.527Z,1.89
2016-12-05T08:50:21.676Z,1.98
2016-12-05T08:51:21.573Z,1.9
2016-12-05T08:52:21.463Z,2.01
2016-12-05T08:53:21.672Z,2.07
2016-12-05T08:54:21.484Z,2.04
2016-12-05T08:55:21.564Z,2.05
2016-12-05T08:56:21.490Z,2.15
2016-12-05T08:57:21.513Z,2.22
2016-12-05T08:58:21.646Z,2.27
2016-12-05T08:59:21.726Z,2.4
2016-12-05T09:00:21.671Z,2.43
2016-12-05T09:01:21.544Z,2.43
2016-12-05T09:03:43.070Z,2.45
2016-12-05T09:04:40.233Z,2.61
2016-12-05T09:05:40.018Z,2.56
2016-12-05T09:06:40.342Z,2.74
2016-12-05T09:07:40.252Z,2.68
2016-12-05T09:08:40.252Z,2.69
2016-12-05T09:09:40.232Z,2.73
2016-12-05T09:10:40.480Z,2.62
2016-12-05T09:11:40.587Z,2.73
2016-12-05T09:12:40.685Z,2.79
2016-12-05T09:13:40.766Z,2.79
2016-12-05T09:14:40.655Z,2.71
2016-12-05T09:15:40.884Z,2.89
2016-12-05T09:16:40.399Z,2.9
2016-12-05T09:17:40.626Z,2.94
2016-12-05T09:18:40.922Z,2.94
2016-12-05T09:19:40.876Z,2.95
2016-12-05T09:20:40.520Z,3.05
2016-12-05T09:21:40.719Z,2.98
2016-12-05T09:22:40.694Z,3.01
2016-12-05T09:23:40.546Z,3.13
2016-12-05T09:24:40.732Z,3.13
2016-12-05T09:25:40.487Z,3.16
2016-12-05T09:26:40.506Z,3.22
2016-12-05T09:27:40.691Z,3.42
2016-12-05T09:28:40.361Z,3.53
2016-12-05T09:29:40.785Z,3.63
2016-12-05T09:31:33.282Z,3.64
2016-12-05T09:31:45.598Z,3.74
2016-12-05T09:32:45.267Z,3.63
2016-12-05T09:33:45.314Z,3.56
2016-12-05T09:34:45.283Z,3.68
2016-12-05T09:35:45.422Z,3.95
2016-12-05T09:36:45.269Z,4.24
2016-12-05T09:37:45.226Z,4.61
2016-12-05T09:38:45.320Z,4.9
2016-12-05T09:39:45.577Z,5.22
2016-12-05T09:40:45.390Z,5.24
2016-12-05T09:41:45.597Z,5.51
2016-12-05T09:42:45.537Z,5.48
2016-12-05T09:43:45.493Z,5.51
2016-12-05T09:44:45.367Z,5.88
2016-12-05T09:45:45.380Z,5.85
2016-12-05T09:46:45.299Z,5.9
2016-12-05T09:47:45.488Z,6.35
2016-12-05T09:48:45.456Z,6.3
2016-12-05T09:49:45.565Z,6.2
2016-12-05T09:50:45.222Z,6.27
2016-12-05T09:51:45.338Z,6.33
2016-12-05T09:52:45.119Z,6.48
2016-12-05T09:53:45.438Z,6.46
2016-12-05T09:54:45.713Z,6.81
2016-12-05T09:55:45.358Z,6.89
2016-12-05T09:56:45.368Z,6.82
2016-12-05T09:57:45.543Z,6.97
2016-12-05T09:58:45.656Z,6.87
2016-12-05T10:04:02.079Z,6.75
2016-12-05T10:04:14.084Z,6.5
2016-12-05T10:05:13.987Z,6.17
2016-12-05T10:06:13.728Z,6.03
2016-12-05T10:07:14.275Z,5.85
2016-12-05T10:08:13.642Z,5.6
2016-12-05T10:09:13.847Z,5.55
2016-12-05T10:10:13.543Z,5.56
2016-12-05T10:11:13.553Z,5.26
2016-12-05T10:12:13.721Z,5.23
2016-12-05T10:13:13.697Z,5.09
2016-12-05T10:14:13.758Z,5.06
2016-12-05T10:15:13.678Z,5.09
2016-12-05T10:16:13.669Z,5.12
2016-12-05T10:17:13.546Z,5.17
2016-12-05T10:18:13.679Z,5.01
2016-12-05T10:19:13.799Z,4.93
2016-12-05T10:20:13.960Z,4.9
2016-12-05T10:21:13.874Z,4.91
2016-12-05T10:22:13.914Z,4.77
2016-12-05T10:23:13.849Z,4.68
2016-12-05T10:24:13.868Z,4.59
2016-12-05T10:25:13.885Z,4.59
2016-12-05T10:26:14.927Z,4.38
2016-12-05T10:27:13.912Z,4.35
2016-12-05T10:28:13.831Z,4.42
2016-12-05T10:29:13.947Z,4.46
2016-12-05T10:30:13.855Z,4.32
2016-12-05T10:31:13.814Z,4.42
2016-12-05T10:32:13.739Z,4.38
2016-12-05T10:33:13.747Z,4.36
2016-12-05T10:34:13.799Z,4.36
2016-12-05T10:35:13.900Z,4.31
2016-12-05T10:36:13.881Z,4.29
2016-12-05T10:37:13.874Z,4.24
2016-12-05T10:38:13.969Z,4.24
2016-12-05T10:39:14.025Z,4.26
2016-12-05T10:40:13.940Z,4.21
2016-12-05T10:41:13.885Z,4.29
2016-12-05T10:42:13.913Z,4.25
2016-12-05T10:43:13.861Z,4.2
2016-12-05T10:44:13.794Z,4.13
2016-12-05T10:45:13.907Z,4.24
2016-12-05T10:46:13.820Z,4.17
2016-12-05T10:47:13.951Z,4.16
2016-12-05T10:48:13.728Z,4.26
2016-12-05T10:49:13.898Z,4.25
2016-12-05T10:50:13.732Z,4.26
2016-12-05T10:51:13.652Z,4.24
2016-12-05T10:52:13.717Z,4.17
2016-12-05T10:53:13.660Z,4.26
2016-12-05T10:54:13.730Z,4.26
2016-12-05T10:55:13.593Z,4.26
2016-12-05T10:56:13.690Z,4.36
2016-12-05T10:57:13.566Z,4.31
2016-12-05T10:58:13.688Z,4.32
2016-12-05T10:59:13.569Z,4.38
2016-12-05T11:00:13.759Z,4.36
2016-12-05T11:01:13.553Z,4.36
2016-12-05T11:02:13.661Z,4.42
2016-12-05T11:03:13.551Z,4.44
2016-12-05T11:04:13.685Z,4.47
2016-12-05T11:05:13.717Z,4.59
2016-12-05T11:06:13.652Z,4.77
2016-12-05T11:07:13.669Z,4.93
2016-12-05T11:08:13.672Z,5.15
2016-12-05T11:09:13.615Z,5.37
2016-12-05T11:10:13.645Z,5.48
2016-12-05T11:11:13.599Z,5.49
2016-12-05T11:12:13.717Z,5.65
2016-12-05T11:13:13.587Z,5.8
2016-12-05T11:14:13.650Z,5.98
2016-12-05T11:15:13.634Z,6.16
2016-12-05T11:16:13.814Z,6.17
2016-12-05T11:17:14.774Z,6.32
2016-12-05T11:18:13.609Z,6.32
2016-12-05T11:19:13.598Z,6.39
2016-12-05T11:20:13.667Z,6.4
2016-12-05T11:21:13.698Z,6.51
2016-12-05T11:22:13.703Z,6.63
2016-12-05T11:23:13.643Z,6.63
2016-12-05T11:24:13.666Z,6.75
2016-12-05T11:25:13.644Z,6.73
2016-12-05T11:26:13.697Z,6.71
2016-12-05T11:27:13.633Z,6.76
2016-12-05T11:28:13.749Z,6.72
2016-12-05T11:29:13.650Z,6.82
2016-12-05T11:30:13.809Z,6.9
2016-12-05T11:31:13.738Z,6.9
2016-12-05T11:32:13.798Z,6.79
2016-12-05T11:33:13.641Z,6.9
2016-12-05T11:34:13.635Z,6.86
2016-12-05T11:35:13.652Z,6.89
2016-12-05T11:36:13.648Z,6.91
2016-12-05T11:37:13.595Z,6.93
2016-12-05T11:38:13.812Z,6.79
2016-12-05T11:39:13.600Z,6.73
2016-12-05T11:40:15.698Z,6.72
2016-12-05T11:41:13.737Z,6.78
2016-12-05T11:42:13.687Z,6.82
2016-12-05T11:43:13.673Z,6.76
2016-12-05T11:44:13.732Z,6.89
2016-12-05T11:45:13.763Z,6.81
2016-12-05T11:46:13.788Z,6.89
2016-12-05T11:47:13.695Z,6.86
2016-12-05T11:48:13.783Z,6.96
2016-12-05T11:49:13.685Z,6.91
2016-12-05T11:50:13.715Z,6.94
2016-12-05T11:51:13.692Z,7.04
2016-12-05T11:52:13.684Z,7.09
2016-12-05T11:53:13.707Z,7.18
2016-12-05T11:54:13.746Z,7.18
2016-12-05T11:55:13.745Z,7.19
2016-12-05T11:56:13.780Z,7.33
2016-12-05T11:57:13.765Z,7.33
2016-12-05T11:58:13.717Z,7.32
2016-12-05T11:59:13.696Z,7.36
2016-12-05T12:00:14.334Z,7.52
2016-12-05T12:01:14.809Z,7.58
2016-12-05T12:02:14.292Z,7.52
2016-12-05T12:03:13.815Z,7.57
2016-12-05T12:04:13.878Z,7.66
2016-12-05T12:05:13.978Z,7.55
2016-12-05T12:06:14.188Z,7.62
2016-12-05T12:07:14.153Z,7.62
2016-12-05T12:08:14.164Z,7.58
2016-12-05T12:09:13.684Z,7.71
2016-12-05T12:10:13.829Z,7.7
2016-12-05T12:11:13.897Z,7.71
2016-12-05T12:12:14.213Z,7.62
2016-12-05T12:13:13.869Z,7.58
2016-12-05T12:14:14.177Z,7.71
2016-12-05T12:15:13.836Z,7.66
2016-12-05T12:16:13.753Z,7.47
2016-12-05T12:17:13.809Z,7.63
2016-12-05T12:18:14.628Z,7.54
2016-12-05T12:19:13.775Z,7.54
2016-12-05T12:20:13.962Z,7.48
2016-12-05T12:21:13.858Z,7.42
2016-12-05T12:22:14.783Z,7.36
2016-12-05T12:23:14.173Z,7.44
2016-12-05T12:24:13.768Z,7.42
2016-12-05T12:25:13.814Z,7.41
2016-12-05T12:26:13.753Z,7.37
2016-12-05T12:27:13.751Z,7.41
2016-12-05T12:28:13.764Z,7.44
2016-12-05T12:29:13.893Z,7.5
2016-12-05T12:30:13.826Z,7.45
2016-12-05T12:31:13.802Z,7.47
2016-12-05T12:32:13.852Z,7.51
2016-12-05T12:33:13.765Z,7.62
2016-12-05T12:34:13.935Z,7.73
2016-12-05T12:35:13.758Z,7.77
2016-12-05T12:36:13.796Z,7.77
2016-12-05T12:37:13.774Z,7.69
2016-12-05T12:38:13.742Z,7.7
2016-12-05T12:39:13.807Z,7.71
2016-12-05T12:40:13.782Z,7.74
2016-12-05T12:41:13.719Z,7.81
2016-12-05T12:42:13.897Z,7.81
2016-12-05T12:43:13.912Z,7.67
2016-12-05T12:44:13.784Z,7.86
2016-12-05T12:45:13.864Z,7.79
2016-12-05T12:46:13.898Z,7.76
2016-12-05T12:47:13.733Z,7.79
2016-12-05T12:48:13.925Z,7.71
2016-12-05T12:49:13.921Z,7.71
2016-12-05T12:50:14.385Z,7.79
2016-12-05T12:51:14.087Z,7.82
2016-12-05T12:52:14.210Z,7.85
2016-12-05T12:53:14.370Z,7.67
2016-12-05T12:54:14.148Z,7.66
2016-12-05T12:55:14.245Z,7.58
2016-12-05T12:56:14.265Z,7.73
2016-12-05T12:57:14.044Z,7.67
2016-12-05T12:58:14.156Z,7.7
2016-12-05T12:59:14.174Z,7.6
2016-12-05T13:00:14.545Z,7.67
2016-12-05T13:01:14.331Z,7.69
2016-12-05T13:02:14.363Z,7.76
2016-12-05T13:03:14.684Z,7.63
2016-12-05T13:04:14.352Z,7.74
2016-12-05T13:05:14.740Z,7.82
2016-12-05T13:06:14.506Z,7.89
2016-12-05T13:07:14.464Z,7.91
2016-12-05T13:08:13.822Z,7.84
2016-12-05T13:09:13.801Z,7.94
2016-12-05T13:10:13.885Z,7.89
2016-12-05T13:11:13.837Z,7.88
2016-12-05T13:12:13.844Z,7.79
2016-12-05T13:13:13.834Z,7.86
2016-12-05T13:14:13.872Z,7.85
2016-12-05T13:15:13.897Z,7.77
2016-12-05T13:16:13.916Z,7.76
2016-12-05T13:17:13.865Z,7.96
2016-12-05T13:18:13.884Z,7.84
2016-12-05T13:19:13.907Z,7.86
2016-12-05T13:20:13.987Z,7.85
2016-12-05T13:21:13.902Z,7.6
2016-12-05T13:22:13.861Z,7.7
2016-12-05T13:23:13.863Z,7.63
2016-12-05T13:24:13.948Z,7.67
2016-12-05T13:25:13.954Z,7.77
2016-12-05T13:26:14.370Z,7.69